Time;durP1;ratioP1;P1;durP2;ratioP2;P2;SDS_P1;SDS_P2;PMS_P1;PMS_P2;Temp;Humidity;BMP_temperature;BMP_pressure;BME280_temperature;BME280_humidity;BME280_pressure;Samples;Min_cycle;Max_cycle;Signal;HPM_P1;HPM_P2
2023/07/09 00:02:12;;;;;;;1999.90;999.90;;;24.80;74.90;;;;;;5105129;28;20028;-73
2023/07/09 00:04:39;;;;;;;1999.90;999.90;;;25.10;74.20;;;;;;5097881;28;20051;-78
2023/07/09 00:07:19;;;;;;;1999.90;999.90;;;25.20;74.60;;;;;;5089179;28;20032;-75
2023/07/09 00:09:46;;;;;;;1999.90;999.90;;;25.80;72.60;;;;;;5087289;28;20029;-78
2023/07/09 00:12:18;;;;;;;1999.90;999.90;;;25.80;73.80;;;;;;5096683;28;20439;-78
2023/07/09 00:14:45;;;;;;;1999.90;999.90;;;25.90;72.90;;;;;;5093486;28;20028;-77
2023/07/09 00:17:22;;;;;;;1999.90;999.90;;;26.10;71.50;;;;;;5090716;28;20142;-74
2023/07/09 00:19:49;;;;;;;1999.90;999.90;;;26.10;72.60;;;;;;5089854;28;20119;-73
2023/07/09 00:22:18;;;;;;;1999.90;999.90;;;26.40;71.60;;;;;;5096784;28;20103;-74
2023/07/09 00:24:56;;;;;;;1999.90;999.90;;;26.50;71.50;;;;;;5091293;28;20024;-74
2023/07/09 00:27:28;;;;;;;1999.90;999.90;;;26.90;70.80;;;;;;5091683;28;20032;-69
2023/07/09 00:29:56;;;;;;;1999.90;999.90;;;26.70;71.50;;;;;;5087440;28;20024;-75
2023/07/09 00:32:24;;;;;;;1999.90;999.90;;;26.80;70.70;;;;;;5092078;28;20083;-73
2023/07/09 00:34:55;;;;;;;1999.90;999.90;;;27.00;71.30;;;;;;5097127;28;20019;-72
2023/07/09 00:37:28;;;;;;;1999.90;999.90;;;27.20;71.80;;;;;;5105984;28;20038;-76
2023/07/09 00:39:56;;;;;;;1999.90;999.90;;;27.20;71.00;;;;;;5096624;28;20057;-78
2023/07/09 00:42:23;;;;;;;1999.90;999.90;;;27.30;71.50;;;;;;5096571;28;20027;-73
2023/07/09 00:44:54;;;;;;;1999.90;999.90;;;27.60;69.40;;;;;;5091847;28;20031;-75
2023/07/09 00:48:03;;;;;;;1999.90;999.90;;;27.60;68.90;;;;;;5102450;28;20516;-75
2023/07/09 00:50:45;;;;;;;1999.90;999.90;;;27.50;70.00;;;;;;5066560;28;20051;-71
2023/07/09 00:53:25;;;;;;;1999.90;999.90;;;27.50;69.30;;;;;;5094955;28;20027;-73
2023/07/09 00:56:15;;;;;;;1999.90;999.90;;;26.90;69.40;;;;;;5093017;28;20027;-74
2023/07/09 00:58:47;;;;;;;1999.90;999.90;;;25.90;69.80;;;;;;5097356;28;20028;-70
2023/07/09 01:01:18;;;;;;;1999.90;999.90;;;26.20;70.20;;;;;;5087508;28;20093;-70
2023/07/09 01:03:57;;;;;;;1999.90;999.90;;;26.70;71.40;;;;;;5085997;28;20051;-70
2023/07/09 01:06:36;;;;;;;1999.90;999.90;;;27.30;69.40;;;;;;5089591;28;20084;-72
2023/07/09 01:09:04;;;;;;;1999.90;999.90;;;27.50;69.20;;;;;;5089340;28;20212;-73
2023/07/09 01:11:31;;;;;;;1999.90;999.90;;;28.00;67.70;;;;;;5091759;28;20028;-76
2023/07/09 01:14:05;;;;;;;1999.90;999.90;;;28.10;69.00;;;;;;5104227;28;20110;-72
2023/07/09 01:16:40;;;;;;;1999.90;999.90;;;28.60;68.10;;;;;;5088600;28;20616;-73
2023/07/09 01:19:08;;;;;;;;;;;28.50;67.20;;;;;;5088621;28;20482;-78
2023/07/09 01:21:35;;;;;;;1999.90;999.90;;;27.90;67.30;;;;;;5094294;28;19990;-72
2023/07/09 01:24:36;;;;;;;1999.90;999.90;;;28.00;69.20;;;;;;5085735;28;20024;-76
2023/07/09 01:27:04;;;;;;;1999.90;999.90;;;28.20;68.90;;;;;;5099115;28;20031;-75
2023/07/09 01:29:34;;;;;;;1999.90;999.90;;;28.60;68.20;;;;;;5092280;28;20046;-72
2023/07/09 01:32:03;;;;;;;1999.90;999.90;;;28.80;66.50;;;;;;5101261;28;20020;-72
2023/07/09 01:34:30;;;;;;;1999.90;999.90;;;28.70;66.40;;;;;;5092064;28;20220;-72
2023/07/09 01:36:57;;;;;;;1999.90;999.90;;;28.70;67.30;;;;;;5094618;28;20167;-71
2023/07/09 01:39:30;;;;;;;1999.90;999.90;;;28.40;67.30;;;;;;5099524;28;20035;-71
2023/07/09 01:41:58;;;;;;;1999.90;999.90;;;28.30;67.70;;;;;;5093218;28;20182;-70
2023/07/09 01:44:29;;;;;;;1999.90;999.90;;;28.30;66.80;;;;;;5091918;28;20107;-73
2023/07/09 01:46:56;;;;;;;1999.90;999.90;;;28.00;67.00;;;;;;5094818;28;20119;-78
2023/07/09 01:49:29;;;;;;;1999.90;999.90;;;28.00;67.70;;;;;;5097980;28;20196;-80
2023/07/09 01:51:58;;;;;;;1999.90;999.90;;;27.80;67.70;;;;;;5093828;28;20518;-77
2023/07/09 01:54:26;;;;;;;1999.90;999.90;;;27.90;67.90;;;;;;5095265;28;20032;-78
2023/07/09 01:56:56;;;;;;;1999.90;999.90;;;27.80;67.30;;;;;;5090451;28;20088;-76
2023/07/09 01:59:24;;;;;;;1999.90;999.90;;;26.90;67.50;;;;;;5103614;28;20031;-76
2023/07/09 02:01:57;;;;;;;1999.90;999.90;;;26.40;68.40;;;;;;5097845;28;20024;-77
2023/07/09 02:04:27;;;;;;;1999.90;999.90;;;26.50;68.50;;;;;;5091969;28;20051;-76
2023/07/09 02:06:54;;;;;;;1999.90;999.90;;;26.60;67.90;;;;;;5100198;28;20094;-78
2023/07/09 02:09:21;;;;;;;1999.90;999.90;;;26.40;68.50;;;;;;5096838;28;20035;-77
2023/07/09 02:11:49;;;;;;;1999.90;999.90;;;26.20;68.70;;;;;;5092927;28;20031;-76
2023/07/09 02:14:36;;;;;;;1999.90;999.90;;;26.80;70.20;;;;;;5079451;28;20047;-80
2023/07/09 02:17:04;;;;;;;1999.90;999.90;;;27.40;69.10;;;;;;5097858;28;20110;-83
2023/07/09 02:19:32;;;;;;;1999.90;999.90;;;27.90;69.10;;;;;;5095654;28;20135;-79
2023/07/09 02:21:59;;;;;;;1999.90;999.90;;;28.30;67.90;;;;;;5097910;28;20039;-79
2023/07/09 02:24:27;;;;;;;1999.90;999.90;;;28.20;67.60;;;;;;5096840;28;20020;-75
2023/07/09 02:26:59;;;;;;;1999.90;999.90;;;28.20;68.00;;;;;;5094861;28;20039;-72
2023/07/09 02:29:28;;;;;;;1999.90;999.90;;;28.40;67.90;;;;;;5095198;28;20036;-76
2023/07/09 02:31:58;;;;;;;1999.90;999.90;;;28.60;68.80;;;;;;5099460;28;20032;-74
2023/07/09 02:34:30;;;;;;;1999.90;999.90;;;28.50;66.90;;;;;;5095821;28;20057;-76
2023/07/09 02:36:59;;;;;;;1999.90;999.90;;;27.50;67.50;;;;;;5095617;28;20028;-76
2023/07/09 02:39:27;;;;;;;1999.90;999.90;;;27.50;68.50;;;;;;5098581;28;20498;-81
2023/07/09 02:41:54;;;;;;;1999.90;999.90;;;27.60;68.90;;;;;;5101065;28;20538;-84
2023/07/09 02:44:21;;;;;;;1999.90;999.90;;;27.60;68.20;;;;;;5093737;28;20024;-79
2023/07/09 02:46:49;;;;;;;1999.90;999.90;;;27.50;67.90;;;;;;5094970;28;20039;-82
2023/07/09 02:49:16;;;;;;;1999.90;999.90;;;27.10;67.90;;;;;;5095685;28;20064;-79
2023/07/09 02:51:44;;;;;;;1999.90;999.90;;;26.80;68.90;;;;;;5090745;28;20024;-75
2023/07/09 02:54:11;;;;;;;1999.90;999.90;;;26.30;68.40;;;;;;5098856;28;20099;-73
2023/07/09 02:56:38;;;;;;;1999.90;999.90;;;26.10;69.20;;;;;;5092090;28;20059;-79
2023/07/09 02:59:06;;;;;;;1999.90;999.90;;;25.70;68.90;;;;;;5099398;28;20028;-71
2023/07/09 03:01:34;;;;;;;1999.90;999.90;;;25.10;69.80;;;;;;5099485;28;20051;-78
2023/07/09 03:04:03;;;;;;;1999.90;999.90;;;24.50;69.80;;;;;;5094829;28;20028;-73
2023/07/09 03:06:32;;;;;;;1999.90;999.90;;;24.00;70.80;;;;;;5094147;28;20039;-73
2023/07/09 03:09:00;;;;;;;1999.90;999.90;;;23.90;71.60;;;;;;5100831;28;20121;-77
2023/07/09 03:11:30;;;;;;;1999.90;999.90;;;24.10;72.40;;;;;;5099382;28;20059;-77
2023/07/09 03:13:59;;;;;;;1999.90;999.90;;;24.30;71.60;;;;;;5095470;28;20567;-76
2023/07/09 03:16:31;;;;;;;1999.90;999.90;;;24.10;71.30;;;;;;5097233;28;20095;-71
2023/07/09 03:18:59;;;;;;;1999.90;999.90;;;23.90;71.60;;;;;;5096328;28;20127;-76
2023/07/09 03:21:28;;;;;;;1999.90;999.90;;;23.50;71.60;;;;;;5092147;28;20024;-70
2023/07/09 03:23:57;;;;;;;1999.90;999.90;;;23.20;72.00;;;;;;5097322;28;20047;-71
2023/07/09 03:26:27;;;;;;;1999.90;999.90;;;22.90;72.60;;;;;;5081805;28;20024;-75
2023/07/09 03:28:55;;;;;;;1999.90;999.90;;;22.30;73.40;;;;;;5091568;28;20046;-71
2023/07/09 03:31:23;;;;;;;1999.90;999.90;;;21.90;74.30;;;;;;5097606;28;20032;-72
2023/07/09 03:33:52;;;;;;;1999.90;999.90;;;21.70;75.00;;;;;;5097784;28;20103;-74
2023/07/09 03:36:20;;;;;;;1999.90;999.90;;;21.60;75.30;;;;;;5090636;28;20027;-75
2023/07/09 03:38:49;;;;;;;1999.90;999.90;;;21.40;75.30;;;;;;5099910;28;20451;-74
2023/07/09 03:41:16;;;;;;;1999.90;999.90;;;21.20;75.70;;;;;;5098700;28;20036;-73
2023/07/09 03:43:44;;;;;;;1999.90;999.90;;;20.90;76.30;;;;;;5092690;28;20024;-69
2023/07/09 03:46:12;;;;;;;1999.90;999.90;;;20.70;75.80;;;;;;5083197;28;20040;-73
2023/07/09 03:48:39;;;;;;;1999.90;999.90;;;20.40;77.10;;;;;;5095700;28;20032;-68
2023/07/09 03:51:06;;;;;;;1999.90;999.90;;;20.20;77.40;;;;;;5089384;28;20107;-71
2023/07/09 03:53:34;;;;;;;1999.90;999.90;;;20.10;78.20;;;;;;5094839;28;20032;-72
2023/07/09 03:56:01;;;;;;;1999.90;999.90;;;20.00;77.90;;;;;;5094169;28;20020;-73
2023/07/09 03:58:29;;;;;;;1999.90;999.90;;;19.80;78.20;;;;;;5092341;28;20032;-74
2023/07/09 04:00:56;;;;;;;1999.90;999.90;;;19.60;78.50;;;;;;5092590;28;20557;-70
2023/07/09 04:03:24;;;;;;;1999.90;999.90;;;19.30;79.10;;;;;;5101521;28;20032;-68
2023/07/09 04:05:51;;;;;;;1999.90;999.90;;;19.00;79.40;;;;;;5089918;28;20117;-73
2023/07/09 04:08:19;;;;;;;1999.90;999.90;;;18.90;80.20;;;;;;5092300;28;20452;-72
2023/07/09 04:10:47;;;;;;;1999.90;999.90;;;18.80;80.10;;;;;;5089024;28;20028;-74
2023/07/09 04:13:14;;;;;;;1999.90;999.90;;;18.70;80.40;;;;;;5094119;28;22174;-73
2023/07/09 04:15:42;;;;;;;1999.90;999.90;;;18.80;80.90;;;;;;5085784;28;20494;-71
2023/07/09 04:18:09;;;;;;;1999.90;999.90;;;18.80;80.70;;;;;;5089713;28;20028;-71
2023/07/09 04:20:36;;;;;;;1999.90;999.90;;;18.70;80.70;;;;;;5078596;28;20111;-70
2023/07/09 04:23:04;;;;;;;1999.90;999.90;;;18.60;81.20;;;;;;5093367;28;20028;-67
2023/07/09 04:25:31;;;;;;;1999.90;999.90;;;18.60;81.40;;;;;;5083423;28;20383;-70
2023/07/09 04:27:59;;;;;;;1999.90;999.90;;;18.60;81.70;;;;;;5086101;28;20032;-70
2023/07/09 04:30:26;;;;;;;1999.90;999.90;;;18.50;81.50;;;;;;5078667;28;20035;-72
2023/07/09 04:32:54;;;;;;;1999.90;999.90;;;18.50;82.70;;;;;;5080624;28;20360;-69
2023/07/09 04:35:21;;;;;;;1999.90;999.90;;;18.50;82.50;;;;;;5085160;28;20090;-70
2023/07/09 04:37:49;;;;;;;1999.90;999.90;;;18.50;82.10;;;;;;5085043;28;20023;-72
2023/07/09 04:40:18;;;;;;;1999.90;999.90;;;18.50;82.50;;;;;;5089388;28;20032;-70
2023/07/09 04:42:45;;;;;;;1999.90;999.90;;;18.50;82.40;;;;;;5096075;28;20149;-72
2023/07/09 04:45:13;;;;;;;1999.90;999.90;;;18.50;82.70;;;;;;5098985;28;20055;-71
2023/07/09 04:47:40;;;;;;;1999.90;999.90;;;18.40;82.70;;;;;;5086861;28;20028;-71
2023/07/09 04:50:09;;;;;;;1999.90;999.90;;;18.50;82.70;;;;;;5087960;28;20428;-70
2023/07/09 04:52:36;;;;;;;1999.90;999.90;;;18.40;83.00;;;;;;5094063;28;20035;-72
2023/07/09 04:55:04;;;;;;;1999.90;999.90;;;18.40;82.70;;;;;;5088393;28;20103;-73
2023/07/09 04:57:31;;;;;;;1999.90;999.90;;;18.40;82.40;;;;;;5093601;28;21748;-69
2023/07/09 04:59:59;;;;;;;1999.90;999.90;;;18.40;82.80;;;;;;5090483;28;20063;-72
2023/07/09 05:02:27;;;;;;;1999.90;999.90;;;18.30;83.00;;;;;;5092075;28;20047;-72
2023/07/09 05:04:54;;;;;;;1999.90;999.90;;;18.30;82.70;;;;;;5088259;28;20448;-71
2023/07/09 05:07:21;;;;;;;1999.90;999.90;;;18.20;83.10;;;;;;5089786;28;20068;-72
2023/07/09 05:09:49;;;;;;;1999.90;999.90;;;18.20;83.50;;;;;;5093531;28;20032;-68
2023/07/09 05:12:17;;;;;;;1999.90;999.90;;;18.10;83.70;;;;;;5097412;28;20024;-68
2023/07/09 05:14:44;;;;;;;1999.90;999.90;;;18.10;83.70;;;;;;5091265;28;20036;-69
2023/07/09 05:17:13;;;;;;;1999.90;999.90;;;18.10;83.60;;;;;;5100173;28;20020;-73
2023/07/09 05:19:41;;;;;;;1999.90;999.90;;;18.00;83.70;;;;;;5092858;28;20080;-71
2023/07/09 05:22:08;;;;;;;1999.90;999.90;;;17.90;84.20;;;;;;5100515;27;20053;-70
2023/07/09 05:24:38;;;;;;;1999.90;999.90;;;17.90;84.50;;;;;;5094237;28;20068;-76
2023/07/09 05:27:08;;;;;;;1999.90;999.90;;;17.90;84.20;;;;;;5097468;28;20040;-74
2023/07/09 05:29:36;;;;;;;1999.90;999.90;;;17.90;84.50;;;;;;5096832;28;20473;-76
2023/07/09 05:32:04;;;;;;;1999.90;999.90;;;17.90;84.30;;;;;;5084215;28;21137;-72
2023/07/09 05:34:31;;;;;;;1999.90;999.90;;;17.80;84.70;;;;;;5091903;28;20477;-71
2023/07/09 05:36:58;;;;;;;1999.90;999.90;;;17.80;84.90;;;;;;5091803;28;20716;-75
2023/07/09 05:39:26;;;;;;;1999.90;999.90;;;17.80;85.70;;;;;;5097744;28;20036;-75
2023/07/09 05:41:53;;;;;;;1999.90;999.90;;;17.70;85.40;;;;;;5093868;28;20063;-72
2023/07/09 05:44:21;;;;;;;1999.90;999.90;;;17.70;85.00;;;;;;5091501;28;20050;-75
2023/07/09 05:46:48;;;;;;;1999.90;999.90;;;17.70;85.00;;;;;;5088986;28;20033;-74
2023/07/09 05:49:15;;;;;;;1999.90;999.90;;;17.70;85.20;;;;;;5090648;28;20069;-74
2023/07/09 05:51:43;;;;;;;1999.90;999.90;;;17.70;85.10;;;;;;5093901;28;20035;-75
2023/07/09 05:54:11;;;;;;;1999.90;999.90;;;17.70;85.60;;;;;;5086570;28;20036;-71
2023/07/09 05:56:38;;;;;;;1999.90;999.90;;;17.70;85.80;;;;;;5095458;28;20024;-74
2023/07/09 05:59:06;;;;;;;1999.90;999.90;;;17.60;85.80;;;;;;5101396;28;20031;-75
2023/07/09 06:01:33;;;;;;;1999.90;999.90;;;17.60;86.30;;;;;;5092029;28;20035;-76
2023/07/09 06:04:00;;;;;;;1999.90;999.90;;;17.60;86.30;;;;;;5101868;28;20043;-73
2023/07/09 06:06:28;;;;;;;1999.90;999.90;;;17.60;86.60;;;;;;5096555;28;20035;-74
2023/07/09 06:08:55;;;;;;;1999.90;999.90;;;17.60;86.30;;;;;;5090906;28;20040;-74
2023/07/09 06:11:23;;;;;;;1999.90;999.90;;;17.60;86.20;;;;;;5095947;28;20027;-77
2023/07/09 06:13:53;;;;;;;1999.90;999.90;;;17.60;86.00;;;;;;5094484;28;20078;-73
2023/07/09 06:16:21;;;;;;;1999.90;999.90;;;17.70;86.20;;;;;;5092480;28;20024;-71
2023/07/09 06:18:48;;;;;;;1999.90;999.90;;;17.70;85.90;;;;;;5098922;28;20119;-73
2023/07/09 06:21:16;;;;;;;1999.90;999.90;;;17.80;85.60;;;;;;5086053;28;20394;-73
2023/07/09 06:23:46;;;;;;;1999.90;999.90;;;17.80;85.70;;;;;;5093624;28;20025;-78
2023/07/09 06:26:14;;;;;;;1999.90;999.90;;;17.80;85.70;;;;;;5096474;28;20108;-73
2023/07/09 06:28:41;;;;;;;1999.90;999.90;;;17.70;86.20;;;;;;5083961;28;20096;-79
2023/07/09 06:31:08;;;;;;;1999.90;999.90;;;17.70;86.20;;;;;;5095586;28;20008;-76
2023/07/09 06:33:36;;;;;;;1999.90;999.90;;;17.60;86.10;;;;;;5096712;28;20071;-73
2023/07/09 06:36:04;;;;;;;1999.90;999.90;;;17.60;86.40;;;;;;5089784;28;20539;-74
2023/07/09 06:38:31;;;;;;;1999.90;999.90;;;17.50;86.80;;;;;;5095544;28;20378;-74
2023/07/09 06:40:59;;;;;;;1999.90;999.90;;;17.40;87.30;;;;;;5097928;28;20035;-72
2023/07/09 06:43:26;;;;;;;1999.90;999.90;;;17.20;87.10;;;;;;5098438;28;20028;-73
2023/07/09 06:45:56;;;;;;;1999.90;999.90;;;17.10;87.90;;;;;;5095162;28;20466;-73
2023/07/09 06:48:25;;;;;;;1999.90;999.90;;;16.90;88.30;;;;;;5096212;28;20089;-72
2023/07/09 06:50:54;;;;;;;1999.90;999.90;;;16.70;88.60;;;;;;5090432;28;20027;-71
2023/07/09 06:53:22;;;;;;;1999.90;999.90;;;16.60;88.90;;;;;;5095766;28;20146;-73
2023/07/09 06:55:50;;;;;;;1999.90;999.90;;;16.40;89.40;;;;;;5095577;28;20140;-72
2023/07/09 06:58:18;;;;;;;1999.90;999.90;;;16.30;89.70;;;;;;5101417;28;20028;-73
2023/07/09 07:00:46;;;;;;;1999.90;999.90;;;16.10;90.10;;;;;;5095688;28;20055;-72
2023/07/09 07:03:13;;;;;;;1999.90;999.90;;;16.10;90.10;;;;;;5100723;28;20038;-75
2023/07/09 07:05:45;;;;;;;1999.90;999.90;;;15.90;90.30;;;;;;5091356;28;20040;-72
2023/07/09 07:08:15;;;;;;;1999.90;999.90;;;15.80;90.50;;;;;;5097663;28;20024;-71
2023/07/09 07:10:43;;;;;;;1999.90;999.90;;;15.70;90.80;;;;;;5093750;28;20074;-73
2023/07/09 07:13:10;;;;;;;1999.90;999.90;;;15.70;90.90;;;;;;5103484;28;20020;-75
2023/07/09 07:15:39;;;;;;;1999.90;999.90;;;15.60;90.90;;;;;;5102216;28;20028;-74
2023/07/09 07:18:07;;;;;;;1999.90;999.90;;;15.50;91.00;;;;;;5104145;28;20036;-73
2023/07/09 07:20:35;;;;;;;1999.90;999.90;;;15.40;91.20;;;;;;5096751;28;20030;-74
2023/07/09 07:23:03;;;;;;;1999.90;999.90;;;15.30;91.30;;;;;;5102103;28;20045;-73
2023/07/09 07:25:32;;;;;;;1999.90;999.90;;;15.20;91.50;;;;;;5095091;28;20042;-71
2023/07/09 07:27:59;;;;;;;1999.90;999.90;;;15.10;91.60;;;;;;5099647;28;20028;-75
2023/07/09 07:30:27;;;;;;;1999.90;999.90;;;15.00;91.90;;;;;;5096726;28;20024;-75
2023/07/09 07:32:54;;;;;;;1999.90;999.90;;;14.90;92.20;;;;;;5099137;28;20494;-75
2023/07/09 07:35:21;;;;;;;1999.90;999.90;;;14.80;92.10;;;;;;5091704;28;20024;-72
2023/07/09 07:37:49;;;;;;;1999.90;999.90;;;14.80;92.50;;;;;;5095034;28;20063;-73
2023/07/09 07:40:16;;;;;;;1999.90;999.90;;;14.70;92.60;;;;;;5089386;28;20077;-75
2023/07/09 07:42:43;;;;;;;1999.90;999.90;;;14.60;92.70;;;;;;5091130;28;20107;-74
2023/07/09 07:45:11;;;;;;;1999.90;999.90;;;14.50;92.80;;;;;;5093446;28;20488;-77
2023/07/09 07:47:39;;;;;;;1999.90;999.90;;;14.40;93.20;;;;;;5089478;28;20051;-76
2023/07/09 07:50:07;;;;;;;1999.90;999.90;;;14.20;93.60;;;;;;5093474;28;20031;-75
2023/07/09 07:52:38;;;;;;;1999.90;999.90;;;14.10;93.90;;;;;;5103459;28;20120;-76
2023/07/09 07:55:09;;;;;;;1999.90;999.90;;;14.00;94.10;;;;;;5098111;28;20758;-77
2023/07/09 07:57:36;;;;;;;1999.90;999.90;;;13.80;94.30;;;;;;5106047;28;20043;-75
2023/07/09 08:00:04;;;;;;;1999.90;999.90;;;13.70;94.70;;;;;;5089034;28;20024;-76
2023/07/09 08:02:32;;;;;;;1999.90;999.90;;;13.60;95.00;;;;;;5095409;28;20024;-78
2023/07/09 08:04:59;;;;;;;1999.90;999.90;;;13.40;95.30;;;;;;5086523;28;20040;-72
2023/07/09 08:07:26;;;;;;;1999.90;999.90;;;13.40;95.50;;;;;;5084231;28;20494;-71
2023/07/09 08:09:54;;;;;;;1999.90;999.90;;;13.30;95.60;;;;;;5086858;28;20036;-75
2023/07/09 08:12:21;;;;;;;1999.90;999.90;;;13.30;95.70;;;;;;5086548;28;20060;-74
2023/07/09 08:14:49;;;;;;;1999.90;999.90;;;13.30;95.80;;;;;;5087526;28;20035;-72
2023/07/09 08:17:16;;;;;;;1999.90;999.90;;;13.20;95.90;;;;;;5090572;28;20051;-70
2023/07/09 08:19:49;;;;;;;1999.90;999.90;;;13.20;96.10;;;;;;5100157;28;20553;-75
2023/07/09 08:22:20;;;;;;;1999.90;999.90;;;13.10;96.30;;;;;;5103331;28;20067;-73
2023/07/09 08:24:51;;;;;;;1999.90;999.90;;;13.10;96.40;;;;;;5095164;28;20078;-75
2023/07/09 08:27:19;;;;;;;1999.90;999.90;;;13.00;96.50;;;;;;5098521;28;20070;-78
2023/07/09 08:29:47;;;;;;;1999.90;999.90;;;13.00;96.80;;;;;;5097232;28;20031;-74
2023/07/09 08:32:15;;;;;;;1999.90;999.90;;;13.00;96.90;;;;;;5105298;28;20020;-71
2023/07/09 08:34:42;;;;;;;1999.90;999.90;;;12.90;97.10;;;;;;5098010;28;20020;-75
2023/07/09 08:37:10;;;;;;;1999.90;999.90;;;12.80;97.40;;;;;;5098308;28;20701;-77
2023/07/09 08:39:37;;;;;;;1999.90;999.90;;;12.70;97.50;;;;;;5093555;28;20095;-77
2023/07/09 08:42:20;;;;;;;1999.90;999.90;;;12.60;97.80;;;;;;5099778;28;20055;-77
2023/07/09 08:45:03;;;;;;;1999.90;999.90;;;12.50;98.20;;;;;;5092202;28;20025;-74
2023/07/09 08:47:48;;;;;;;1999.90;999.90;;;12.40;98.50;;;;;;5093927;28;20024;-75
2023/07/09 08:50:40;;;;;;;1999.90;999.90;;;12.20;98.90;;;;;;5097435;28;20043;-75
2023/07/09 08:53:35;;;;;;;1999.90;999.90;;;12.10;99.30;;;;;;5093685;28;20058;-72
2023/07/09 08:56:02;;;;;;;1999.90;999.90;;;12.00;99.70;;;;;;5097559;28;20141;-73
2023/07/09 08:58:33;;;;;;;1999.90;999.90;;;11.90;99.90;;;;;;5100772;28;20020;-77
2023/07/09 09:01:14;;;;;;;1999.90;999.90;;;11.90;99.90;;;;;;5094767;28;20020;-77
2023/07/09 09:03:59;;;;;;;1999.90;999.90;;;11.80;99.90;;;;;;5097824;28;20020;-75
2023/07/09 09:06:31;;;;;;;1999.90;999.90;;;11.70;99.90;;;;;;5093325;28;20024;-74
2023/07/09 09:09:22;;;;;;;1999.90;999.90;;;11.70;99.90;;;;;;5096844;28;20047;-73
2023/07/09 09:12:12;;;;;;;1999.90;999.90;;;11.60;99.90;;;;;;5093615;28;20044;-74
2023/07/09 09:14:43;;;;;;;1999.90;999.90;;;11.60;99.90;;;;;;5090163;28;20102;-74
2023/07/09 09:17:21;;;;;;;1999.90;999.90;;;11.50;99.90;;;;;;5094389;28;20036;-77
2023/07/09 09:20:04;;;;;;;1999.90;999.90;;;11.50;99.90;;;;;;5094601;28;20016;-73
2023/07/09 09:22:45;;;;;;;1999.90;999.90;;;11.40;99.90;;;;;;5094862;28;20080;-74
2023/07/09 09:25:15;;;;;;;1999.90;999.90;;;11.30;99.90;;;;;;5097450;28;20028;-76
2023/07/09 09:27:43;;;;;;;1999.90;999.90;;;11.40;99.90;;;;;;5092571;28;20051;-74
2023/07/09 09:30:18;;;;;;;1999.90;999.90;;;11.40;99.90;;;;;;5094632;28;20039;-79
2023/07/09 09:32:57;;;;;;;1999.90;999.90;;;11.50;99.90;;;;;;5094641;28;20516;-78
2023/07/09 09:35:31;;;;;;;1999.90;999.90;;;11.60;99.90;;;;;;5089654;28;20032;-77
2023/07/09 09:38:00;;;;;;;1999.90;999.90;;;11.70;99.90;;;;;;5091756;28;20103;-75
2023/07/09 09:40:29;;;;;;;1999.90;999.90;;;11.60;99.90;;;;;;5084787;28;20025;-72
2023/07/09 09:43:00;;;;;;;1999.90;999.90;;;11.60;99.90;;;;;;5090333;28;20556;-76
2023/07/09 09:45:34;;;;;;;1999.90;999.90;;;11.50;99.90;;;;;;5087764;28;20483;-73
2023/07/09 09:48:09;;;;;;;1999.90;999.90;;;11.50;99.90;;;;;;5088380;28;20059;-75
2023/07/09 09:50:37;;;;;;;1999.90;999.90;;;11.30;99.90;;;;;;5094303;28;20494;-76
2023/07/09 09:53:10;;;;;;;1999.90;999.90;;;11.20;99.90;;;;;;5097806;28;20028;-72
2023/07/09 09:55:40;;;;;;;1999.90;999.90;;;11.10;99.90;;;;;;5088039;28;20024;-75
2023/07/09 09:58:16;;;;;;;1999.90;999.90;;;10.90;99.90;;;;;;5102631;28;20114;-76
2023/07/09 10:00:51;;;;;;;;;;;10.80;99.90;;;;;;5091931;28;20034;-71
2023/07/09 10:03:19;;;;;;;1999.90;999.90;;;10.70;99.90;;;;;;5084466;28;19916;-71
2023/07/09 10:05:56;;;;;;;1999.90;999.90;;;10.60;99.90;;;;;;5081700;28;20131;-72
2023/07/09 10:08:58;;;;;;;1999.90;999.90;;;10.50;99.90;;;;;;5085011;28;20035;-74
2023/07/09 10:11:49;;;;;;;1999.90;999.90;;;10.50;99.90;;;;;;5084288;28;20028;-74
2023/07/09 10:14:32;;;;;;;1999.90;999.90;;;10.40;99.90;;;;;;5100203;28;20056;-71
2023/07/09 10:17:15;;;;;;;1999.90;999.90;;;10.30;99.90;;;;;;5092215;28;20107;-72
2023/07/09 10:19:54;;;;;;;1999.90;999.90;;;10.30;99.90;;;;;;5093521;28;20504;-72
2023/07/09 10:22:45;;;;;;;1999.90;999.90;;;10.30;99.90;;;;;;5096616;28;20039;-70
2023/07/09 10:25:49;;;;;;;1999.90;999.90;;;10.20;99.90;;;;;;5052880;28;20043;-73
2023/07/09 10:28:25;;;;;;;1999.90;999.90;;;10.10;99.90;;;;;;5092929;28;20032;-75
2023/07/09 10:31:08;;;;;;;1999.90;999.90;;;10.00;99.90;;;;;;5082912;28;20028;-73
2023/07/09 10:33:53;;;;;;;1999.90;999.90;;;10.00;99.90;;;;;;5070518;28;20074;-75
2023/07/09 10:36:42;;;;;;;1999.90;999.90;;;10.00;99.90;;;;;;5071816;28;20424;-76
2023/07/09 10:39:48;;;;;;;1999.90;999.90;;;9.90;99.90;;;;;;5069530;28;20036;-72
2023/07/09 10:42:56;;;;;;;1999.90;999.90;;;9.90;99.90;;;;;;5062215;28;20513;-73
2023/07/09 10:45:41;;;;;;;1999.90;999.90;;;9.70;99.90;;;;;;5085077;27;20683;-75
2023/07/09 10:48:39;;;;;;;1999.90;999.90;;;9.60;99.90;;;;;;5072993;28;20051;-73
2023/07/09 10:51:21;;;;;;;1999.90;999.90;;;9.50;99.90;;;;;;5076197;28;20059;-71
2023/07/09 10:54:13;;;;;;;1999.90;999.90;;;9.50;99.90;;;;;;5074018;28;20046;-73
2023/07/09 10:56:41;;;;;;;1999.90;999.90;;;9.40;99.90;;;;;;5082765;28;20051;-73
2023/07/09 10:59:26;;;;;;;1999.90;999.90;;;9.40;99.90;;;;;;5073979;28;20067;-74
2023/07/09 11:02:16;;;;;;;1999.90;999.90;;;9.30;99.90;;;;;;5073294;28;20071;-71
2023/07/09 11:05:09;;;;;;;1999.90;999.90;;;9.20;99.90;;;;;;5073814;28;20040;-73
2023/07/09 11:07:46;;;;;;;1999.90;999.90;;;9.20;99.90;;;;;;5075263;28;20047;-70
2023/07/09 11:10:24;;;;;;;1999.90;999.90;;;9.20;99.90;;;;;;5085514;28;20478;-70
2023/07/09 11:13:01;;;;;;;1999.90;999.90;;;9.10;99.90;;;;;;5096149;27;20402;-71
2023/07/09 11:15:37;;;;;;;1999.90;999.90;;;9.10;99.90;;;;;;5081237;28;20028;-72
2023/07/09 11:18:17;;;;;;;1999.90;999.90;;;9.10;99.90;;;;;;5079831;28;20053;-75
2023/07/09 11:20:47;;;;;;;1999.90;999.90;;;9.00;99.90;;;;;;5097075;28;20039;-75
2023/07/09 11:23:24;;;;;;;1999.90;999.90;;;8.90;99.90;;;;;;5110052;28;20036;-76
2023/07/09 11:26:14;;;;;;;1999.90;999.90;;;8.90;99.90;;;;;;5095653;28;20036;-71
2023/07/09 11:28:48;;;;;;;1999.90;999.90;;;8.80;99.90;;;;;;5095835;28;20457;-74
2023/07/09 11:31:22;;;;;;;1999.90;999.90;;;8.80;99.90;;;;;;5096765;28;20043;-75
2023/07/09 11:34:08;;;;;;;1999.90;999.90;;;8.80;99.90;;;;;;5091956;28;20031;-77
2023/07/09 11:36:46;;;;;;;1999.90;999.90;;;8.70;99.90;;;;;;5092527;28;20067;-73
2023/07/09 11:39:45;;;;;;;1999.90;999.90;;;8.70;99.90;;;;;;5095453;28;20135;-77
2023/07/09 11:42:26;;;;;;;1999.90;999.90;;;8.70;99.90;;;;;;5089270;28;20038;-73
2023/07/09 11:45:01;;;;;;;1999.90;999.90;;;8.70;99.90;;;;;;5094886;28;20020;-74
2023/07/09 11:47:59;;;;;;;1999.90;999.90;;;8.70;99.90;;;;;;5101896;28;20104;-78
2023/07/09 11:50:42;;;;;;;1999.90;999.90;;;8.60;99.90;;;;;;5097146;28;20046;-72
2023/07/09 11:53:37;;;;;;;1999.90;999.90;;;8.60;99.90;;;;;;5098714;28;20024;-74
2023/07/09 11:56:04;;;;;;;1999.90;999.90;;;8.50;99.90;;;;;;5094962;28;20074;-75
2023/07/09 11:58:32;;;;;;;1999.90;999.90;;;8.50;99.90;;;;;;5098029;28;20032;-72
2023/07/09 12:01:03;;;;;;;1999.90;999.90;;;8.40;99.90;;;;;;5100881;28;20038;-73
2023/07/09 12:03:43;;;;;;;1999.90;999.90;;;8.30;99.90;;;;;;5096184;28;20030;-74
2023/07/09 12:06:24;;;;;;;1999.90;999.90;;;8.30;99.90;;;;;;5098712;28;20673;-74
2023/07/09 12:08:53;;;;;;;1999.90;999.90;;;8.30;99.90;;;;;;5096663;28;20072;-73
2023/07/09 12:11:32;;;;;;;1999.90;999.90;;;8.20;99.90;;;;;;5100565;28;20425;-76
2023/07/09 12:14:11;;;;;;;1999.90;999.90;;;8.20;99.90;;;;;;5094617;28;20035;-75
2023/07/09 12:16:54;;;;;;;1999.90;999.90;;;8.20;99.90;;;;;;5098913;28;20073;-75
2023/07/09 12:19:24;;;;;;;1999.90;999.90;;;8.30;99.90;;;;;;5097508;28;20028;-74
2023/07/09 12:21:58;;;;;;;1999.90;999.90;;;8.30;99.90;;;;;;5098695;28;20185;-75
2023/07/09 12:24:29;;;;;;;1999.90;999.90;;;8.30;99.90;;;;;;5098747;28;20032;-75
2023/07/09 12:27:01;;;;;;;1999.90;999.90;;;8.40;99.90;;;;;;5096019;28;20477;-74